createdAt,value
2018-11-22T06:13:33.446Z,33.58
2018-11-22T06:14:33.467Z,33.57
2018-11-22T06:15:33.369Z,33.78
2018-11-22T06:16:33.352Z,33.48
2018-11-22T06:17:33.605Z,33.39
2018-11-22T06:18:33.352Z,33.58
2018-11-22T06:19:33.327Z,33.37
2018-11-22T06:20:33.568Z,33.58
2018-11-22T06:21:33.299Z,33.58
2018-11-22T06:22:33.551Z,33.48
2018-11-22T06:23:33.281Z,33.58
2018-11-22T06:24:33.268Z,33.57
2018-11-22T06:25:33.254Z,33.57
2018-11-22T06:26:33.498Z,33.39
2018-11-22T06:27:33.230Z,33.69
2018-11-22T06:28:33.226Z,33.17
2018-11-22T06:29:33.455Z,33.28
2018-11-22T06:30:33.450Z,33.19
2018-11-22T06:31:33.188Z,33.07
2018-11-22T06:32:33.439Z,33.27
2018-11-22T06:33:33.420Z,33.37
2018-11-22T06:34:33.148Z,33.37
2018-11-22T06:35:33.146Z,33.37
2018-11-22T06:36:33.177Z,33.17
2018-11-22T06:37:33.146Z,33.37
2018-11-22T06:38:33.103Z,33.17
2018-11-22T06:39:33.100Z,33.47
2018-11-22T06:40:33.096Z,33.37
2018-11-22T06:41:33.077Z,33.67
2018-11-22T06:42:33.062Z,33.17
2018-11-22T06:43:33.306Z,33.47
2018-11-22T06:44:33.040Z,33.37
2018-11-22T06:45:33.073Z,33.37
2018-11-22T06:46:33.046Z,33.67
2018-11-22T06:47:33.050Z,33.87
2018-11-22T06:48:33.021Z,33.77
2018-11-22T06:49:32.998Z,34.27
2018-11-22T06:50:32.995Z,34.25
2018-11-22T06:51:32.975Z,34.17
2018-11-22T06:52:32.998Z,34.17
2018-11-22T06:53:32.947Z,34.16
2018-11-22T06:54:32.938Z,34.25
2018-11-22T06:55:32.918Z,34.05
2018-11-22T06:56:32.913Z,34.16
2018-11-22T06:57:32.909Z,34.16
2018-11-22T06:58:32.886Z,34.16
2018-11-22T06:59:33.125Z,34.25
2018-11-22T07:00:32.871Z,34.25
2018-11-22T07:01:32.865Z,34.25
2018-11-22T07:02:32.851Z,34.25
2018-11-22T07:03:33.084Z,34.16
2018-11-22T07:04:32.819Z,34.16
2018-11-22T07:05:33.060Z,34.25
2018-11-22T07:06:32.803Z,34.96
2018-11-22T07:07:33.041Z,34.86
2018-11-22T07:08:32.777Z,34.86
2018-11-22T07:09:32.766Z,35.26
2018-11-22T07:10:32.768Z,35.26
2018-11-22T07:11:33.240Z,35.16
2018-11-22T07:12:34.915Z,35.46
2018-11-22T07:13:32.995Z,35.16
2018-11-22T07:14:32.718Z,35.16
2018-11-22T07:15:32.720Z,35.05
2018-11-22T07:16:32.686Z,35.04
2018-11-22T07:17:32.919Z,35.14
2018-11-22T07:18:32.965Z,35.05
2018-11-22T07:19:32.912Z,34.86
2018-11-22T07:20:32.643Z,35.05
2018-11-22T07:21:32.643Z,35.05
2018-11-22T07:22:32.633Z,35.05
2018-11-22T07:23:33.308Z,34.86
2018-11-22T07:24:32.608Z,34.96
2018-11-22T07:25:32.843Z,35.05
2018-11-22T07:26:32.581Z,34.96
2018-11-22T07:27:33.340Z,34.86
2018-11-22T07:28:32.562Z,34.75
2018-11-22T07:29:32.809Z,34.96
2018-11-22T07:30:32.537Z,34.84
2018-11-22T07:31:32.525Z,34.86
2018-11-22T07:32:32.521Z,34.64
2018-11-22T07:33:38.155Z,34.96
2018-11-22T07:34:32.767Z,34.86
2018-11-22T07:35:32.733Z,34.96
2018-11-22T07:36:32.467Z,34.96
2018-11-22T07:37:32.459Z,34.86
2018-11-22T07:38:32.453Z,34.96
2018-11-22T07:39:32.436Z,34.96
2018-11-22T07:40:32.430Z,34.96
2018-11-22T07:41:32.418Z,34.86
2018-11-22T07:42:32.419Z,34.75
2018-11-22T07:43:32.395Z,34.16
2018-11-22T07:44:32.386Z,34.16
2018-11-22T07:45:32.396Z,34.25
2018-11-22T07:46:32.364Z,34.36
2018-11-22T07:47:32.348Z,33.95
2018-11-22T07:48:32.590Z,34.25
2018-11-22T07:49:32.624Z,33.85
2018-11-22T07:50:32.353Z,33.85
2018-11-22T07:51:32.333Z,33.66
2018-11-22T07:52:32.603Z,33.66
2018-11-22T07:53:32.544Z,33.66
2018-11-22T07:54:32.533Z,34.54
2018-11-22T07:55:32.278Z,34.24
2018-11-22T07:56:32.736Z,34.86
2018-11-22T07:57:32.243Z,34.96
2018-11-22T07:58:32.220Z,34.84
2018-11-22T07:59:32.251Z,35.24
2018-11-22T08:00:32.451Z,35.05
2018-11-22T08:01:32.287Z,35.36
2018-11-22T08:02:32.444Z,35.36
2018-11-22T08:03:32.348Z,35.24
2018-11-22T08:04:33.927Z,35.24
2018-11-22T08:05:32.648Z,35.26
2018-11-22T08:06:32.154Z,35.24
2018-11-22T08:07:32.218Z,35.26
2018-11-22T08:08:32.404Z,35.14
2018-11-22T08:09:32.103Z,35.04
2018-11-22T08:10:32.105Z,35.34
2018-11-22T08:11:32.081Z,35.14
2018-11-22T08:12:32.385Z,34.84
2018-11-22T08:13:32.312Z,35.14
2018-11-22T08:14:32.302Z,35.36
2018-11-22T08:15:32.079Z,34.94
2018-11-22T08:16:32.293Z,35.54
2018-11-22T08:17:32.029Z,34.94
2018-11-22T08:18:32.028Z,35.14
2018-11-22T08:19:32.033Z,35.14
2018-11-22T08:20:32.012Z,35.24
2018-11-22T08:21:38.190Z,35.04
2018-11-22T08:22:53.829Z,35.44
2018-11-22T08:23:53.838Z,35.54
2018-11-22T08:24:53.805Z,35.14
2018-11-22T08:25:53.802Z,35.24
2018-11-22T08:26:53.791Z,35.24
2018-11-22T08:27:53.777Z,34.64
2018-11-22T08:28:53.766Z,34.54
2018-11-22T08:29:56.795Z,35.14
2018-11-22T08:30:53.747Z,35.12
2018-11-22T08:31:53.755Z,35.64
2018-11-22T08:32:53.733Z,34.74
2018-11-22T08:33:53.711Z,34.74
2018-11-22T08:34:53.698Z,34.64
2018-11-22T08:35:53.951Z,35.54
2018-11-22T08:36:53.685Z,34.54
2018-11-22T08:37:53.916Z,35.24
2018-11-22T08:38:53.660Z,35.24
2018-11-22T08:39:53.660Z,34.94
2018-11-22T08:40:53.643Z,35.14
2018-11-22T08:41:53.617Z,34.94
2018-11-22T08:42:55.289Z,35.22
2018-11-22T08:43:53.885Z,35.22
2018-11-22T08:44:54.387Z,35.12
2018-11-22T08:45:53.833Z,35.22
2018-11-22T08:46:53.567Z,35.22
2018-11-22T08:47:53.555Z,35.04
2018-11-22T08:48:53.542Z,34.93
2018-11-22T08:49:53.560Z,34.93
2018-11-22T08:50:53.792Z,35.02
2018-11-22T08:51:53.514Z,35.43
2018-11-22T08:52:53.518Z,34.82
2018-11-22T08:53:53.496Z,35.12
2018-11-22T08:54:53.471Z,34.74
2018-11-22T08:55:53.716Z,34.93
2018-11-22T08:56:53.718Z,35.02
2018-11-22T08:57:54.167Z,35.14
2018-11-22T08:58:53.426Z,35.12
2018-11-22T08:59:53.415Z,35.02
2018-11-22T09:00:53.424Z,35.14
2018-11-22T09:01:53.409Z,34.94
2018-11-22T09:02:53.698Z,35.22
2018-11-22T09:03:53.382Z,34.93
2018-11-22T09:04:53.362Z,35.34
2018-11-22T09:05:53.369Z,34.93
2018-11-22T09:06:53.346Z,35.22
2018-11-22T09:07:53.579Z,34.94
2018-11-22T09:08:53.577Z,35.02
2018-11-22T09:09:53.309Z,35.22
2018-11-22T09:10:53.335Z,35.22
2018-11-22T09:11:53.287Z,34.82
2018-11-22T09:12:53.279Z,34.82
2018-11-22T09:13:53.550Z,35.02
2018-11-22T09:14:53.275Z,34.93
2018-11-22T09:15:53.247Z,35.02
2018-11-22T09:16:53.266Z,35.22
2018-11-22T09:17:54.265Z,35.02
2018-11-22T09:18:53.467Z,35.62
2018-11-22T09:19:53.707Z,35.12
2018-11-22T09:20:53.188Z,35.74
2018-11-22T09:21:53.197Z,35.43
2018-11-22T09:22:53.221Z,35.02
2018-11-22T09:23:53.226Z,35.32
2018-11-22T09:24:53.195Z,35.02
2018-11-22T09:25:53.434Z,35.12
2018-11-22T09:26:53.184Z,35.43
2018-11-22T09:27:54.463Z,35.22
2018-11-22T09:28:53.138Z,35.52
2018-11-22T09:29:53.100Z,35.62
2018-11-22T09:30:53.975Z,35.62
2018-11-22T09:31:53.834Z,36.23
2018-11-22T09:32:53.099Z,35.52
2018-11-22T09:33:53.056Z,36.11
2018-11-22T09:34:53.034Z,36.12
2018-11-22T09:35:53.022Z,36.02
2018-11-22T09:36:53.021Z,35.82
2018-11-22T09:37:53.026Z,35.62
2018-11-22T09:38:53.119Z,36.02
2018-11-22T09:39:53.237Z,36.02
2018-11-22T09:40:52.974Z,35.62
2018-11-22T09:41:53.204Z,36.12
2018-11-22T09:42:52.950Z,36.11
2018-11-22T09:43:53.200Z,35.72
2018-11-22T09:44:52.919Z,36.02
2018-11-22T09:45:52.909Z,35.72
2018-11-22T09:46:52.898Z,35.62
2018-11-22T09:47:53.143Z,35.52
2018-11-22T09:48:52.883Z,35.43
2018-11-22T09:49:52.876Z,35.61
2018-11-22T09:50:52.885Z,34.72
2018-11-22T09:51:53.886Z,34.93
2018-11-22T09:52:52.844Z,34.52
2018-11-22T09:53:52.825Z,35.72
2018-11-22T09:54:53.062Z,35.41
2018-11-22T09:55:53.050Z,35.02
2018-11-22T09:56:53.046Z,35.12
2018-11-22T09:57:52.790Z,34.93
2018-11-22T09:58:53.069Z,34.82
2018-11-22T09:59:52.754Z,35.32
2018-11-22T10:00:52.997Z,35.22
2018-11-22T10:01:52.826Z,35.52
2018-11-22T10:02:52.741Z,35.32
2018-11-22T10:03:53.199Z,35.22
2018-11-22T10:04:52.842Z,34.91
2018-11-22T10:05:53.031Z,34.72
2018-11-22T10:06:52.697Z,35.11
2018-11-22T10:07:52.923Z,34.80
2018-11-22T10:08:52.851Z,34.93
2018-11-22T10:09:52.654Z,34.82
2018-11-22T10:10:52.636Z,34.82
2018-11-22T10:11:52.877Z,34.91
2018-11-22T10:12:52.903Z,34.82
2018-11-22T10:13:52.661Z,34.82
2018-11-22T10:14:52.859Z,35.43
2018-11-22T10:15:52.589Z,34.93
2018-11-22T10:16:52.618Z,34.72
2018-11-22T10:17:52.821Z,34.52
2018-11-22T10:18:52.635Z,34.72
2018-11-22T10:19:54.077Z,34.12
2018-11-22T10:20:52.551Z,34.22
2018-11-22T10:21:52.573Z,34.72
2018-11-22T10:22:54.151Z,34.32
2018-11-22T10:23:52.785Z,34.12
2018-11-22T10:24:52.516Z,34.72
2018-11-22T10:25:52.757Z,34.12
2018-11-22T10:26:52.528Z,34.42
2018-11-22T10:27:52.697Z,34.32
2018-11-22T10:28:52.763Z,34.32
2018-11-22T10:29:52.717Z,34.02
2018-11-22T10:30:52.428Z,33.82
2018-11-22T10:31:52.656Z,34.32
2018-11-22T10:32:52.386Z,33.92
2018-11-22T10:33:52.381Z,34.52
2018-11-22T10:34:52.371Z,34.72
2018-11-22T10:35:52.370Z,34.72
2018-11-22T10:36:52.365Z,34.62
2018-11-22T10:37:52.443Z,34.62
2018-11-22T10:38:52.321Z,35.02
2018-11-22T10:39:52.322Z,35.02
2018-11-22T10:40:52.319Z,35.02
2018-11-22T10:41:52.299Z,35.12
2018-11-22T10:42:52.460Z,34.72
2018-11-22T10:43:52.421Z,35.12
2018-11-22T10:44:53.887Z,35.72
2018-11-22T10:45:52.277Z,35.93
2018-11-22T10:46:53.242Z,35.72
2018-11-22T10:47:52.223Z,36.12
2018-11-22T10:48:52.594Z,35.02
2018-11-22T10:49:52.209Z,34.62
2018-11-22T10:50:52.312Z,34.61
2018-11-22T10:51:52.195Z,34.72
2018-11-22T10:52:52.418Z,35.43
2018-11-22T10:53:52.431Z,35.52
2018-11-22T10:54:52.839Z,35.71
2018-11-22T10:55:52.165Z,35.52
2018-11-22T10:56:52.479Z,34.71
2018-11-22T10:57:53.859Z,34.52
2018-11-22T10:58:52.363Z,35.11
2018-11-22T10:59:53.357Z,35.62
2018-11-22T11:00:52.357Z,35.12
2018-11-22T11:01:52.093Z,35.11
2018-11-22T11:02:52.081Z,35.43
2018-11-22T11:03:52.046Z,35.12
2018-11-22T11:04:52.037Z,35.32
2018-11-22T11:05:52.377Z,35.30
2018-11-22T11:06:52.019Z,35.41
2018-11-22T11:07:52.512Z,35.12
2018-11-22T11:08:51.998Z,35.30
2018-11-22T11:09:51.975Z,35.11
2018-11-22T11:10:51.977Z,35.21
2018-11-22T11:11:52.003Z,35.21
2018-11-22T11:12:52.526Z,35.11
2018-11-22T11:13:52.293Z,35.00
2018-11-22T11:14:51.975Z,34.91
2018-11-22T11:15:51.943Z,35.11
2018-11-22T11:16:51.907Z,35.11
2018-11-22T11:17:51.911Z,34.91
2018-11-22T11:18:51.927Z,34.41
2018-11-22T11:19:51.867Z,34.80
2018-11-22T11:20:51.865Z,35.51
2018-11-22T11:21:51.950Z,35.41
2018-11-22T11:22:52.079Z,35.30
2018-11-22T11:23:51.869Z,34.50
2018-11-22T11:24:52.078Z,35.39
2018-11-22T11:25:51.805Z,35.41
2018-11-22T11:26:51.808Z,34.41
2018-11-22T11:27:51.777Z,34.41
2018-11-22T11:28:51.766Z,35.30
2018-11-22T11:29:51.795Z,34.49
2018-11-22T11:30:51.753Z,34.71
2018-11-22T11:31:52.009Z,35.41
2018-11-22T11:32:51.737Z,35.51
2018-11-22T11:33:51.731Z,34.61
2018-11-22T11:34:51.706Z,35.09
2018-11-22T11:35:51.941Z,34.61
2018-11-22T11:36:51.690Z,34.39
2018-11-22T11:37:51.659Z,34.91
2018-11-22T11:38:51.661Z,35.11
2018-11-22T11:39:51.888Z,35.51
2018-11-22T11:40:51.629Z,34.80
2018-11-22T11:41:51.634Z,35.30
2018-11-22T11:42:52.109Z,35.59
2018-11-22T11:43:51.601Z,34.99
2018-11-22T11:44:51.594Z,35.51
2018-11-22T11:45:51.583Z,35.11
2018-11-22T11:46:51.583Z,35.29
2018-11-22T11:47:51.561Z,35.30
2018-11-22T11:48:51.546Z,35.51
2018-11-22T11:49:54.162Z,35.21
2018-11-22T11:50:51.568Z,35.41
2018-11-22T11:51:51.518Z,35.59
2018-11-22T11:52:51.506Z,35.30
2018-11-22T11:53:51.532Z,35.61
2018-11-22T11:54:51.737Z,35.00
2018-11-22T11:55:51.496Z,35.39
2018-11-22T11:56:51.463Z,34.50
2018-11-22T11:57:51.951Z,35.41
2018-11-22T11:58:51.690Z,34.29
2018-11-22T11:59:51.423Z,34.59
2018-11-22T12:00:51.426Z,35.39
2018-11-22T12:01:51.665Z,35.19
2018-11-22T12:02:51.407Z,35.49
2018-11-22T12:03:51.391Z,34.49
2018-11-22T12:04:51.398Z,34.69
2018-11-22T12:05:51.369Z,34.29
2018-11-22T12:06:51.344Z,34.59
2018-11-22T12:07:51.598Z,35.11
2018-11-22T12:08:51.369Z,34.69
2018-11-22T12:09:56.218Z,34.59
2018-11-22T12:10:51.305Z,34.39
2018-11-22T12:11:51.397Z,34.39
2018-11-22T12:12:51.558Z,35.69
2018-11-22T12:13:51.282Z,34.41
2018-11-22T12:14:51.268Z,35.29
2018-11-22T12:15:51.256Z,35.29
2018-11-22T12:16:51.235Z,35.29
2018-11-22T12:17:51.235Z,35.41
2018-11-22T12:18:51.232Z,34.39
2018-11-22T12:19:51.207Z,35.29
2018-11-22T12:20:51.442Z,35.39
2018-11-22T12:21:51.174Z,35.39
2018-11-22T12:22:51.159Z,35.49
2018-11-22T12:23:51.158Z,34.49
2018-11-22T12:24:51.422Z,34.79
2018-11-22T12:25:51.127Z,35.29
2018-11-22T12:26:51.379Z,35.19
2018-11-22T12:27:51.112Z,35.09
2018-11-22T12:28:51.105Z,35.09
2018-11-22T12:29:51.099Z,35.19
2018-11-22T12:30:51.085Z,34.89
2018-11-22T12:31:51.730Z,34.89
2018-11-22T12:32:51.095Z,34.99
2018-11-22T12:33:51.050Z,35.37
2018-11-22T12:34:51.294Z,35.19
2018-11-22T12:35:51.065Z,34.89
2018-11-22T12:36:51.283Z,35.07
2018-11-22T12:37:51.019Z,35.07
2018-11-22T12:38:51.256Z,34.68
2018-11-22T12:39:50.992Z,35.19
2018-11-22T12:40:50.983Z,34.57
2018-11-22T12:41:50.952Z,34.97
2018-11-22T12:42:51.208Z,34.69
2018-11-22T12:43:50.937Z,34.99
2018-11-22T12:44:50.933Z,34.77
2018-11-22T12:45:51.167Z,34.97
2018-11-22T12:46:50.912Z,34.79
2018-11-22T12:47:50.906Z,35.07
2018-11-22T12:48:50.889Z,34.97
2018-11-22T12:49:51.138Z,34.77
2018-11-22T12:50:51.118Z,34.97
2018-11-22T12:51:51.367Z,34.97
2018-11-22T12:52:50.853Z,35.07
2018-11-22T12:53:50.840Z,35.07
2018-11-22T12:54:50.822Z,35.07
2018-11-22T12:55:50.812Z,35.07
2018-11-22T12:56:50.811Z,35.18
2018-11-22T12:57:51.033Z,35.18
2018-11-22T12:58:51.035Z,35.18
2018-11-22T12:59:50.918Z,34.87
2018-11-22T13:00:50.833Z,35.07
2018-11-22T13:01:50.752Z,35.27
2018-11-22T13:02:50.738Z,35.37
2018-11-22T13:03:50.732Z,34.97
2018-11-22T13:04:50.995Z,34.97
2018-11-22T13:05:50.695Z,34.97
2018-11-22T13:06:50.704Z,34.97
2018-11-22T13:07:50.681Z,35.18
2018-11-22T13:08:50.940Z,35.09
2018-11-22T13:09:50.656Z,35.29
2018-11-22T13:10:50.649Z,35.37
2018-11-22T13:11:50.635Z,35.09
2018-11-22T13:12:50.631Z,35.37
2018-11-22T13:13:51.279Z,34.99
2018-11-22T13:14:50.617Z,34.97
2018-11-22T13:15:50.593Z,35.09
2018-11-22T13:16:50.577Z,35.19
2018-11-22T13:17:50.583Z,34.79
2018-11-22T13:18:50.582Z,34.89
2018-11-22T13:19:50.573Z,35.09
2018-11-22T13:20:50.540Z,34.99
2018-11-22T13:21:50.577Z,34.79
2018-11-22T13:22:50.563Z,35.09
2018-11-22T13:23:51.006Z,34.69
2018-11-22T13:24:50.483Z,35.19
2018-11-22T13:25:50.506Z,34.77
2018-11-22T13:26:50.482Z,34.77
2018-11-22T13:27:50.469Z,34.59
2018-11-22T13:28:50.442Z,35.09
2018-11-22T13:29:50.484Z,34.87
2018-11-22T13:30:50.442Z,34.47
2018-11-22T13:31:50.474Z,34.39
2018-11-22T13:32:50.409Z,34.87
2018-11-22T13:33:51.619Z,34.99
2018-11-22T13:34:50.388Z,34.59
2018-11-22T13:35:50.371Z,34.89
2018-11-22T13:36:50.378Z,34.89
2018-11-22T13:37:50.597Z,34.99
2018-11-22T13:38:50.352Z,34.77
2018-11-22T13:39:50.337Z,35.09
2018-11-22T13:40:50.817Z,34.99
2018-11-22T13:41:50.305Z,35.19
2018-11-22T13:42:50.325Z,34.99
2018-11-22T13:43:53.330Z,34.99
2018-11-22T13:44:50.271Z,35.39
2018-11-22T13:45:50.279Z,35.09
2018-11-22T13:46:50.260Z,35.19
2018-11-22T13:47:50.252Z,35.19
2018-11-22T13:48:50.242Z,35.19
2018-11-22T13:49:50.238Z,35.09
2018-11-22T13:50:50.217Z,35.29
2018-11-22T13:51:50.197Z,35.59
2018-11-22T13:52:50.426Z,34.99
2018-11-22T13:53:50.179Z,34.99
2018-11-22T13:54:50.165Z,34.89
2018-11-22T13:55:50.180Z,35.21
2018-11-22T13:56:50.141Z,34.99
2018-11-22T13:57:50.148Z,35.09
2018-11-22T13:58:50.283Z,35.30
2018-11-22T13:59:50.214Z,35.39
2018-11-22T14:00:50.101Z,34.80
2018-11-22T14:01:50.084Z,35.11
2018-11-22T14:02:50.474Z,34.79
2018-11-22T14:03:50.059Z,35.00
2018-11-22T14:04:50.067Z,35.00
2018-11-22T14:05:50.050Z,35.00
2018-11-22T14:06:50.060Z,34.91
2018-11-22T14:07:50.288Z,35.30
2018-11-22T14:08:51.009Z,35.11
2018-11-22T14:09:49.990Z,35.11
2018-11-22T14:10:50.008Z,34.91
2018-11-22T14:11:50.023Z,35.21
2018-11-22T14:12:49.996Z,34.61
2018-11-22T14:13:50.197Z,34.91
2018-11-22T14:14:49.944Z,34.82
2018-11-22T14:15:49.930Z,34.71
2018-11-22T14:16:50.008Z,34.62
2018-11-22T14:17:50.028Z,34.12
2018-11-22T14:18:49.959Z,34.11
2018-11-22T14:19:49.920Z,34.00
2018-11-22T14:20:49.878Z,34.32
2018-11-22T14:21:49.861Z,33.92
2018-11-22T14:22:49.852Z,34.32
2018-11-22T14:23:50.129Z,33.91
2018-11-22T14:24:49.872Z,33.62
2018-11-22T14:25:50.076Z,33.72
2018-11-22T14:26:49.813Z,33.62
2018-11-22T14:27:50.067Z,33.82
2018-11-22T14:28:49.806Z,33.82
2018-11-22T14:29:49.790Z,34.22
2018-11-22T14:30:50.017Z,33.62
2018-11-22T14:31:49.754Z,34.12
2018-11-22T14:32:49.753Z,34.22
2018-11-22T14:33:49.996Z,34.22
2018-11-22T14:34:49.736Z,34.42
2018-11-22T14:35:49.713Z,34.42
2018-11-22T14:36:49.705Z,34.22
2018-11-22T14:37:49.720Z,34.12
2018-11-22T14:38:49.799Z,34.22
2018-11-22T14:39:49.680Z,33.92
2018-11-22T14:40:49.686Z,33.82
2018-11-22T14:41:49.642Z,34.22
2018-11-22T14:42:49.950Z,34.12
2018-11-22T14:43:49.624Z,34.24
2018-11-22T14:44:49.609Z,33.82
2018-11-22T14:45:49.627Z,34.12
2018-11-22T14:46:49.840Z,33.82
2018-11-22T14:47:49.574Z,34.12
2018-11-22T14:48:49.927Z,34.04
2018-11-22T14:49:49.589Z,34.04
2018-11-22T14:50:49.536Z,34.24
2018-11-22T14:51:50.062Z,34.14
2018-11-22T14:52:49.524Z,34.04
2018-11-22T14:53:49.520Z,34.24
2018-11-22T14:54:49.503Z,34.24
2018-11-22T14:55:49.483Z,34.14
2018-11-22T14:56:49.911Z,33.84
2018-11-22T14:57:49.489Z,34.24
2018-11-22T14:58:49.488Z,34.14
2018-11-22T14:59:49.450Z,34.14
2018-11-22T15:00:49.434Z,34.24
2018-11-22T15:01:49.674Z,34.24
2018-11-22T15:02:49.661Z,34.14
2018-11-22T15:03:49.394Z,34.14
2018-11-22T15:04:49.383Z,34.04
2018-11-22T15:05:49.367Z,34.14
2018-11-22T15:06:49.375Z,34.24
2018-11-22T15:07:49.360Z,34.24
2018-11-22T15:08:50.043Z,34.24
2018-11-22T15:09:49.595Z,34.04
2018-11-22T15:10:49.318Z,34.14
2018-11-22T15:11:49.574Z,34.24
2018-11-22T15:12:49.291Z,34.24
2018-11-22T15:13:49.535Z,34.24
2018-11-22T15:14:49.297Z,34.14
2018-11-22T15:15:49.503Z,34.14
2018-11-22T15:16:49.240Z,34.24
2018-11-22T15:17:49.251Z,34.14
2018-11-22T15:18:49.230Z,34.14
2018-11-22T15:19:49.224Z,34.14
2018-11-22T15:20:49.198Z,34.24
2018-11-22T15:21:49.224Z,34.25
2018-11-22T15:22:49.207Z,34.14
2018-11-22T15:23:49.162Z,34.14
2018-11-22T15:24:49.156Z,34.05
2018-11-22T15:25:49.137Z,33.94
2018-11-22T15:26:49.412Z,34.25
2018-11-22T15:27:49.129Z,34.16
2018-11-22T15:28:49.108Z,34.36
2018-11-22T15:29:50.106Z,34.25
2018-11-22T15:30:49.347Z,33.84
2018-11-22T15:31:49.085Z,33.94
2018-11-22T15:32:49.064Z,34.24
2018-11-22T15:33:49.059Z,34.16
2018-11-22T15:34:49.296Z,33.95
2018-11-22T15:35:49.045Z,34.34
2018-11-22T15:36:49.024Z,34.14
2018-11-22T15:37:49.015Z,34.44
2018-11-22T15:38:52.016Z,34.25
2018-11-22T15:39:48.984Z,34.75
2018-11-22T15:40:48.979Z,34.75
2018-11-22T15:41:48.973Z,34.75
2018-11-22T15:42:49.147Z,34.96
2018-11-22T15:43:49.195Z,34.55
2018-11-22T15:44:49.178Z,35.46
2018-11-22T15:45:48.921Z,34.55
2018-11-22T15:46:48.921Z,34.54
2018-11-22T15:47:49.161Z,34.96
2018-11-22T15:48:48.878Z,34.66
2018-11-22T15:49:48.879Z,34.86
2018-11-22T15:50:49.504Z,34.66
2018-11-22T15:51:48.852Z,34.75
2018-11-22T15:52:48.838Z,34.86
2018-11-22T15:53:48.827Z,34.96
2018-11-22T15:54:48.817Z,34.75
2018-11-22T15:55:48.801Z,34.96
2018-11-22T15:56:48.861Z,35.05
2018-11-22T15:57:48.788Z,34.86
2018-11-22T15:58:48.820Z,34.96
2018-11-22T15:59:48.766Z,34.66
2018-11-22T16:00:48.746Z,34.96
2018-11-22T16:01:48.732Z,34.86
2018-11-22T16:02:48.742Z,34.96
2018-11-22T16:04:48.955Z,34.86
2018-11-22T16:05:48.696Z,35.05
2018-11-22T16:06:48.689Z,34.75
2018-11-22T16:07:48.672Z,35.16
2018-11-22T16:08:49.946Z,34.96
2018-11-22T16:15:48.834Z,35.05
2018-11-22T16:16:48.564Z,34.75
2018-11-22T16:17:48.559Z,34.86
2018-11-22T16:18:48.548Z,34.96
2018-11-22T16:19:48.865Z,34.96
2018-11-22T16:20:48.530Z,35.76
2018-11-22T16:21:48.513Z,36.06
2018-11-22T16:22:49.953Z,36.26
2018-11-22T19:17:46.773Z,35.79
2018-11-22T19:18:46.510Z,35.69
2018-11-22T19:19:46.495Z,35.61
2018-11-22T19:20:46.483Z,35.79
2018-11-22T19:21:46.472Z,35.59
2018-11-22T19:22:46.469Z,35.79
2018-11-22T19:23:46.690Z,36.29
2018-11-22T19:24:46.438Z,36.09
2018-11-22T19:25:46.682Z,36.09
2018-11-22T19:26:46.409Z,35.79
2018-11-22T19:27:46.398Z,46.30
2018-11-22T19:28:46.390Z,45.67
2018-11-22T19:29:46.385Z,37.36
2018-11-22T19:30:46.367Z,41.47
2018-11-22T19:31:46.364Z,36.44
2018-11-22T19:32:46.850Z,36.04
2018-11-22T19:33:46.328Z,36.84
2018-11-22T19:34:46.330Z,36.54
2018-11-22T19:35:46.306Z,36.14
2018-11-22T19:36:46.291Z,35.84
2018-11-22T19:37:46.541Z,35.54
2018-11-22T19:38:46.329Z,35.64
2018-11-22T19:39:46.274Z,35.05
2018-11-22T19:40:46.248Z,35.05
2018-11-22T19:41:46.255Z,35.66
2018-11-22T19:42:46.224Z,35.46
2018-11-22T19:43:46.715Z,35.46
2018-11-22T19:44:46.489Z,35.55
2018-11-22T19:45:46.501Z,35.76
2018-11-22T19:46:46.184Z,35.55
2018-11-22T19:47:46.171Z,35.46
2018-11-22T19:48:46.165Z,35.37
2018-11-22T19:49:46.190Z,35.55
2018-11-22T19:50:46.136Z,35.77
2018-11-22T19:51:46.125Z,35.57
2018-11-22T19:52:46.371Z,35.77
2018-11-22T19:53:46.100Z,35.66
2018-11-22T19:54:46.112Z,35.57
2018-11-22T19:55:46.080Z,35.68
2018-11-22T19:56:46.329Z,35.77
2018-11-22T19:57:46.056Z,35.57
2018-11-22T19:58:46.300Z,35.57
2018-11-22T19:59:46.032Z,35.47
2018-11-22T20:00:46.041Z,35.57
2018-11-22T20:01:46.038Z,35.68
2018-11-22T20:02:46.008Z,35.47
2018-11-22T20:03:45.989Z,35.47
2018-11-22T20:04:45.984Z,35.37
2018-11-22T20:05:46.212Z,35.57
